sensor_id;sensor_type;location;lat;lon;timestamp;pressure;altitude;pressure_sealevel;temperature;humidity
30897;BME280;64229;52.246;21.054;2023-05-10T00:00:31;101195.41;;;8.44;48.65
30897;BME280;64229;52.246;21.054;2023-05-10T00:02:56;101212.09;;;8.51;48.87
30897;BME280;64229;52.246;21.054;2023-05-10T00:05:21;101182.56;;;8.41;48.73
30897;BME280;64229;52.246;21.054;2023-05-10T00:07:47;101206.75;;;8.51;48.65
30897;BME280;64229;52.246;21.054;2023-05-10T00:10:12;101206.72;;;8.39;48.82
30897;BME280;64229;52.246;21.054;2023-05-10T00:12:38;101196.38;;;8.31;48.94
30897;BME280;64229;52.246;21.054;2023-05-10T00:15:05;101205.69;;;8.40;48.79
30897;BME280;64229;52.246;21.054;2023-05-10T00:17:31;101208.25;;;8.47;48.58
30897;BME280;64229;52.246;21.054;2023-05-10T00:19:56;101198.44;;;8.29;49.20
30897;BME280;64229;52.246;21.054;2023-05-10T00:22:21;101190.47;;;8.29;49.46
30897;BME280;64229;52.246;21.054;2023-05-10T00:24:47;101195.91;;;8.23;49.59
30897;BME280;64229;52.246;21.054;2023-05-10T00:27:12;101191.63;;;8.22;49.40
30897;BME280;64229;52.246;21.054;2023-05-10T00:29:37;101194.84;;;8.24;49.09
30897;BME280;64229;52.246;21.054;2023-05-10T00:32:03;101188.63;;;8.30;49.27
30897;BME280;64229;52.246;21.054;2023-05-10T00:34:28;101184.41;;;8.40;48.86
30897;BME280;64229;52.246;21.054;2023-05-10T00:36:54;101183.06;;;8.20;49.05
30897;BME280;64229;52.246;21.054;2023-05-10T00:39:19;101150.22;;;7.84;49.50
30897;BME280;64229;52.246;21.054;2023-05-10T00:41:45;101184.75;;;8.14;49.21
30897;BME280;64229;52.246;21.054;2023-05-10T00:44:10;101178.66;;;8.25;48.93
30897;BME280;64229;52.246;21.054;2023-05-10T00:46:36;101183.22;;;8.06;48.88
30897;BME280;64229;52.246;21.054;2023-05-10T00:49:01;101185.06;;;8.06;49.21
30897;BME280;64229;52.246;21.054;2023-05-10T00:51:27;101174.66;;;8.04;49.16
30897;BME280;64229;52.246;21.054;2023-05-10T00:53:53;101181.38;;;8.07;48.86
30897;BME280;64229;52.246;21.054;2023-05-10T00:56:19;101176.72;;;7.91;49.38
30897;BME280;64229;52.246;21.054;2023-05-10T00:58:48;101182.69;;;7.86;49.51
30897;BME280;64229;52.246;21.054;2023-05-10T01:01:13;101176.94;;;7.89;49.35
30897;BME280;64229;52.246;21.054;2023-05-10T01:03:39;101179.22;;;7.86;49.47
30897;BME280;64229;52.246;21.054;2023-05-10T01:06:05;101176.72;;;7.91;49.21
30897;BME280;64229;52.246;21.054;2023-05-10T01:08:30;101177.56;;;8.03;48.72
30897;BME280;64229;52.246;21.054;2023-05-10T01:10:56;101172.25;;;8.03;48.57
30897;BME280;64229;52.246;21.054;2023-05-10T01:13:50;101173.28;;;8.02;48.60
30897;BME280;64229;52.246;21.054;2023-05-10T01:16:17;101155.34;;;7.97;48.37
30897;BME280;64229;52.246;21.054;2023-05-10T01:18:43;101174.84;;;7.91;48.83
30897;BME280;64229;52.246;21.054;2023-05-10T01:26:44;101161.41;;;7.86;48.64
30897;BME280;64229;52.246;21.054;2023-05-10T01:29:45;101164.47;;;7.90;48.31
30897;BME280;64229;52.246;21.054;2023-05-10T01:32:19;101171.13;;;7.80;48.62
30897;BME280;64229;52.246;21.054;2023-05-10T01:37:25;101160.50;;;7.80;48.40
30897;BME280;64229;52.246;21.054;2023-05-10T01:42:40;101163.81;;;7.76;48.63
30897;BME280;64229;52.246;21.054;2023-05-10T01:45:14;101159.13;;;7.60;49.04
30897;BME280;64229;52.246;21.054;2023-05-10T01:47:44;101162.59;;;7.60;49.00
30897;BME280;64229;52.246;21.054;2023-05-10T01:50:25;101164.13;;;7.68;48.94
30897;BME280;64229;52.246;21.054;2023-05-10T01:52:55;101155.16;;;7.50;49.38
30897;BME280;64229;52.246;21.054;2023-05-10T01:55:25;101166.00;;;7.49;49.68
30897;BME280;64229;52.246;21.054;2023-05-10T01:57:58;101151.91;;;7.48;49.44
30897;BME280;64229;52.246;21.054;2023-05-10T02:00:25;101138.84;;;7.47;49.61
30897;BME280;64229;52.246;21.054;2023-05-10T02:02:52;101129.78;;;7.36;49.67
30897;BME280;64229;52.246;21.054;2023-05-10T02:05:20;101120.50;;;7.27;49.85
30897;BME280;64229;52.246;21.054;2023-05-10T02:07:47;101140.25;;;7.31;50.28
30897;BME280;64229;52.246;21.054;2023-05-10T02:10:13;101146.31;;;7.20;51.01
30897;BME280;64229;52.246;21.054;2023-05-10T02:12:42;101141.56;;;7.40;50.23
30897;BME280;64229;52.246;21.054;2023-05-10T02:15:09;101138.69;;;7.42;49.86
30897;BME280;64229;52.246;21.054;2023-05-10T02:17:37;101143.13;;;7.48;50.12
30897;BME280;64229;52.246;21.054;2023-05-10T02:20:04;101139.88;;;7.46;49.93
30897;BME280;64229;52.246;21.054;2023-05-10T02:22:31;101143.88;;;7.55;49.58
30897;BME280;64229;52.246;21.054;2023-05-10T02:24:58;101135.38;;;7.46;49.69
30897;BME280;64229;52.246;21.054;2023-05-10T02:27:26;101147.63;;;7.47;50.34
30897;BME280;64229;52.246;21.054;2023-05-10T02:29:53;101130.53;;;7.25;50.55
30897;BME280;64229;52.246;21.054;2023-05-10T02:32:21;101151.09;;;7.11;50.99
30897;BME280;64229;52.246;21.054;2023-05-10T02:34:48;101139.53;;;7.06;51.30
30897;BME280;64229;52.246;21.054;2023-05-10T02:37:19;101152.13;;;7.10;51.79
30897;BME280;64229;52.246;21.054;2023-05-10T02:39:47;101147.13;;;7.02;51.55
30897;BME280;64229;52.246;21.054;2023-05-10T02:42:23;101150.88;;;7.31;51.02
30897;BME280;64229;52.246;21.054;2023-05-10T02:44:51;101149.13;;;7.25;51.21
30897;BME280;64229;52.246;21.054;2023-05-10T02:47:18;101144.63;;;7.25;51.11
30897;BME280;64229;52.246;21.054;2023-05-10T02:49:44;101152.13;;;7.29;50.97
30897;BME280;64229;52.246;21.054;2023-05-10T02:52:09;101150.34;;;7.22;51.10
30897;BME280;64229;52.246;21.054;2023-05-10T02:54:45;101144.31;;;7.15;51.68
30897;BME280;64229;52.246;21.054;2023-05-10T02:57:11;101145.59;;;7.13;51.66
30897;BME280;64229;52.246;21.054;2023-05-10T02:59:40;101156.31;;;7.00;52.13
30897;BME280;64229;52.246;21.054;2023-05-10T03:02:06;101150.13;;;6.87;52.64
30897;BME280;64229;52.246;21.054;2023-05-10T03:04:31;101144.34;;;6.72;52.73
30897;BME280;64229;52.246;21.054;2023-05-10T03:06:56;101151.59;;;6.83;52.75
30897;BME280;64229;52.246;21.054;2023-05-10T03:09:22;101155.69;;;6.79;52.78
30897;BME280;64229;52.246;21.054;2023-05-10T03:12:04;101148.44;;;6.68;53.48
30897;BME280;64229;52.246;21.054;2023-05-10T03:14:45;101158.44;;;6.91;52.80
30897;BME280;64229;52.246;21.054;2023-05-10T03:20:07;101150.41;;;6.97;52.66
30897;BME280;64229;52.246;21.054;2023-05-10T03:22:38;101149.84;;;6.95;52.55
30897;BME280;64229;52.246;21.054;2023-05-10T03:25:06;101143.84;;;6.82;52.66
30897;BME280;64229;52.246;21.054;2023-05-10T03:27:34;101152.66;;;6.76;53.22
30897;BME280;64229;52.246;21.054;2023-05-10T03:30:02;101135.19;;;6.68;52.87
30897;BME280;64229;52.246;21.054;2023-05-10T03:32:29;101147.22;;;6.71;53.47
30897;BME280;64229;52.246;21.054;2023-05-10T03:34:55;101140.00;;;6.78;53.54
30897;BME280;64229;52.246;21.054;2023-05-10T03:37:20;101137.56;;;6.76;53.17
30897;BME280;64229;52.246;21.054;2023-05-10T03:39:46;101112.94;;;6.69;52.95
30897;BME280;64229;52.246;21.054;2023-05-10T03:42:11;101148.44;;;6.93;52.83
30897;BME280;64229;52.246;21.054;2023-05-10T03:44:38;101145.25;;;6.84;53.32
30897;BME280;64229;52.246;21.054;2023-05-10T03:47:03;101139.28;;;6.89;53.26
30897;BME280;64229;52.246;21.054;2023-05-10T03:49:29;101132.22;;;6.83;53.00
30897;BME280;64229;52.246;21.054;2023-05-10T03:51:55;101148.44;;;6.93;53.01
30897;BME280;64229;52.246;21.054;2023-05-10T03:54:21;101145.69;;;6.81;53.29
30897;BME280;64229;52.246;21.054;2023-05-10T03:56:46;101142.00;;;6.82;53.59
30897;BME280;64229;52.246;21.054;2023-05-10T03:59:13;101148.19;;;6.76;53.92
30897;BME280;64229;52.246;21.054;2023-05-10T04:01:38;101148.88;;;6.65;54.33
30897;BME280;64229;52.246;21.054;2023-05-10T04:04:03;101144.13;;;6.74;54.41
30897;BME280;64229;52.246;21.054;2023-05-10T04:06:29;101140.53;;;6.86;53.75
30897;BME280;64229;52.246;21.054;2023-05-10T04:08:54;101143.78;;;6.88;54.06
30897;BME280;64229;52.246;21.054;2023-05-10T04:11:20;101146.59;;;6.93;54.01
30897;BME280;64229;52.246;21.054;2023-05-10T04:13:47;101136.84;;;6.87;53.75
30897;BME280;64229;52.246;21.054;2023-05-10T04:16:12;101109.41;;;6.75;54.21
30897;BME280;64229;52.246;21.054;2023-05-10T04:18:37;101153.00;;;6.86;54.31
30897;BME280;64229;52.246;21.054;2023-05-10T04:21:03;101143.28;;;6.98;53.33
30897;BME280;64229;52.246;21.054;2023-05-10T04:23:28;101117.53;;;6.99;52.99
30897;BME280;64229;52.246;21.054;2023-05-10T04:26:00;101158.25;;;7.11;53.34
30897;BME280;64229;52.246;21.054;2023-05-10T04:28:25;101150.28;;;7.29;52.92
30897;BME280;64229;52.246;21.054;2023-05-10T04:30:51;101147.34;;;7.19;53.01
30897;BME280;64229;52.246;21.054;2023-05-10T04:33:16;101148.66;;;7.10;54.02
30897;BME280;64229;52.246;21.054;2023-05-10T04:35:41;101153.97;;;7.28;53.66
30897;BME280;64229;52.246;21.054;2023-05-10T04:38:07;101152.66;;;7.37;53.45
30897;BME280;64229;52.246;21.054;2023-05-10T04:40:32;101151.16;;;7.41;53.37
30897;BME280;64229;52.246;21.054;2023-05-10T04:42:57;101153.06;;;7.52;52.73
30897;BME280;64229;52.246;21.054;2023-05-10T04:45:23;101152.47;;;7.50;52.61
30897;BME280;64229;52.246;21.054;2023-05-10T04:47:48;101156.84;;;7.45;53.21
30897;BME280;64229;52.246;21.054;2023-05-10T04:50:13;101150.13;;;7.42;53.33
30897;BME280;64229;52.246;21.054;2023-05-10T04:52:39;101155.19;;;7.62;52.59
30897;BME280;64229;52.246;21.054;2023-05-10T04:55:04;101157.19;;;7.67;52.88
30897;BME280;64229;52.246;21.054;2023-05-10T04:57:32;101126.97;;;7.49;52.88
30897;BME280;64229;52.246;21.054;2023-05-10T04:59:57;101154.09;;;7.70;53.21
30897;BME280;64229;52.246;21.054;2023-05-10T05:02:23;101159.25;;;7.65;53.20
30897;BME280;64229;52.246;21.054;2023-05-10T05:04:48;101161.97;;;7.76;53.03
30897;BME280;64229;52.246;21.054;2023-05-10T05:07:14;101157.66;;;7.94;52.68
30897;BME280;64229;52.246;21.054;2023-05-10T05:09:39;101124.91;;;7.81;52.07
30897;BME280;64229;52.246;21.054;2023-05-10T05:12:05;101160.50;;;8.22;51.62
30897;BME280;64229;52.246;21.054;2023-05-10T05:14:30;101150.13;;;8.32;51.01
30897;BME280;64229;52.246;21.054;2023-05-10T05:16:56;101160.00;;;8.44;50.56
30897;BME280;64229;52.246;21.054;2023-05-10T05:19:21;101161.63;;;8.56;50.51
30897;BME280;64229;52.246;21.054;2023-05-10T05:21:47;101155.63;;;8.61;50.32
30897;BME280;64229;52.246;21.054;2023-05-10T05:24:12;101156.09;;;8.69;50.35
30897;BME280;64229;52.246;21.054;2023-05-10T05:26:38;101157.38;;;8.79;50.33
30897;BME280;64229;52.246;21.054;2023-05-10T05:29:04;101154.47;;;8.80;50.07
30897;BME280;64229;52.246;21.054;2023-05-10T05:31:29;101156.91;;;8.82;50.57
30897;BME280;64229;52.246;21.054;2023-05-10T05:33:55;101159.69;;;8.87;50.86
30897;BME280;64229;52.246;21.054;2023-05-10T05:36:21;101160.38;;;9.06;50.93
30897;BME280;64229;52.246;21.054;2023-05-10T05:38:46;101147.34;;;9.33;49.29
30897;BME280;64229;52.246;21.054;2023-05-10T05:41:12;101140.66;;;9.30;49.16
30897;BME280;64229;52.246;21.054;2023-05-10T05:43:37;101162.25;;;9.57;48.22
30897;BME280;64229;52.246;21.054;2023-05-10T05:46:02;101171.06;;;9.57;48.81
30897;BME280;64229;52.246;21.054;2023-05-10T05:48:29;101164.19;;;9.62;48.49
30897;BME280;64229;52.246;21.054;2023-05-10T05:50:55;101162.44;;;9.67;48.56
30897;BME280;64229;52.246;21.054;2023-05-10T05:53:21;101166.09;;;9.78;49.01
30897;BME280;64229;52.246;21.054;2023-05-10T05:55:57;101155.88;;;9.86;49.00
30897;BME280;64229;52.246;21.054;2023-05-10T05:58:23;101163.38;;;10.18;47.37
30897;BME280;64229;52.246;21.054;2023-05-10T06:00:49;101163.81;;;10.27;47.29
30897;BME280;64229;52.246;21.054;2023-05-10T06:03:14;101155.66;;;10.50;46.37
30897;BME280;64229;52.246;21.054;2023-05-10T06:05:40;101160.28;;;10.55;46.77
30897;BME280;64229;52.246;21.054;2023-05-10T06:08:05;101161.88;;;10.72;46.09
30897;BME280;64229;52.246;21.054;2023-05-10T06:10:31;101154.97;;;10.93;44.99
30897;BME280;64229;52.246;21.054;2023-05-10T06:12:56;101161.69;;;10.96;44.88
30897;BME280;64229;52.246;21.054;2023-05-10T06:15:21;101155.91;;;11.04;44.56
30897;BME280;64229;52.246;21.054;2023-05-10T06:17:47;101168.06;;;11.12;44.95
30897;BME280;64229;52.246;21.054;2023-05-10T06:20:14;101162.47;;;11.35;44.65
30897;BME280;64229;52.246;21.054;2023-05-10T06:22:40;101163.72;;;11.49;44.37
30897;BME280;64229;52.246;21.054;2023-05-10T06:25:06;101158.97;;;11.56;44.77
30897;BME280;64229;52.246;21.054;2023-05-10T06:27:31;101159.34;;;11.65;43.90
30897;BME280;64229;52.246;21.054;2023-05-10T06:29:57;101155.19;;;11.74;44.25
30897;BME280;64229;52.246;21.054;2023-05-10T06:32:22;101163.91;;;11.86;43.29
30897;BME280;64229;52.246;21.054;2023-05-10T06:34:47;101161.06;;;11.98;42.46
30897;BME280;64229;52.246;21.054;2023-05-10T06:37:13;101163.00;;;12.03;42.79
30897;BME280;64229;52.246;21.054;2023-05-10T06:39:38;101156.00;;;12.29;41.16
30897;BME280;64229;52.246;21.054;2023-05-10T06:42:03;101155.03;;;12.40;40.42
30897;BME280;64229;52.246;21.054;2023-05-10T06:44:29;101129.66;;;12.48;40.99
30897;BME280;64229;52.246;21.054;2023-05-10T06:46:55;101150.69;;;12.66;40.64
30897;BME280;64229;52.246;21.054;2023-05-10T06:49:21;101157.03;;;12.97;40.14
30897;BME280;64229;52.246;21.054;2023-05-10T06:51:46;101159.22;;;13.05;39.34
30897;BME280;64229;52.246;21.054;2023-05-10T06:54:11;101152.31;;;13.14;39.48
30897;BME280;64229;52.246;21.054;2023-05-10T06:56:37;101134.34;;;13.10;38.92
30897;BME280;64229;52.246;21.054;2023-05-10T06:59:02;101156.06;;;13.18;39.46
30897;BME280;64229;52.246;21.054;2023-05-10T07:01:28;101155.34;;;13.28;40.12
30897;BME280;64229;52.246;21.054;2023-05-10T07:03:53;101152.19;;;13.41;39.47
30897;BME280;64229;52.246;21.054;2023-05-10T07:06:19;101154.13;;;13.56;39.09
30897;BME280;64229;52.246;21.054;2023-05-10T07:08:44;101127.56;;;13.59;38.29
30897;BME280;64229;52.246;21.054;2023-05-10T07:11:10;101153.13;;;13.93;37.99
30897;BME280;64229;52.246;21.054;2023-05-10T07:13:35;101139.47;;;13.99;36.35
30897;BME280;64229;52.246;21.054;2023-05-10T07:16:01;101147.00;;;14.17;35.33
30897;BME280;64229;52.246;21.054;2023-05-10T07:18:27;101140.56;;;14.24;34.30
30897;BME280;64229;52.246;21.054;2023-05-10T07:20:53;101140.56;;;14.24;34.02
30897;BME280;64229;52.246;21.054;2023-05-10T07:23:18;101147.28;;;14.57;33.67
30897;BME280;64229;52.246;21.054;2023-05-10T07:25:45;101149.66;;;14.94;34.34
30897;BME280;64229;52.246;21.054;2023-05-10T07:28:11;101143.88;;;17.54;30.60
30897;BME280;64229;52.246;21.054;2023-05-10T07:30:36;101142.94;;;20.58;25.57
30897;BME280;64229;52.246;21.054;2023-05-10T07:33:01;101155.84;;;22.78;22.69
30897;BME280;64229;52.246;21.054;2023-05-10T07:35:27;101147.53;;;23.93;20.77
30897;BME280;64229;52.246;21.054;2023-05-10T07:37:52;101149.69;;;26.04;19.11
30897;BME280;64229;52.246;21.054;2023-05-10T07:40:17;101154.59;;;27.33;17.65
30897;BME280;64229;52.246;21.054;2023-05-10T07:42:43;101151.72;;;28.00;16.55
30897;BME280;64229;52.246;21.054;2023-05-10T07:45:08;101153.66;;;28.18;15.30
30897;BME280;64229;52.246;21.054;2023-05-10T07:47:34;101142.63;;;27.60;15.68
30897;BME280;64229;52.246;21.054;2023-05-10T07:49:59;101168.56;;;27.28;15.55
30897;BME280;64229;52.246;21.054;2023-05-10T07:52:24;101152.41;;;26.91;16.12
30897;BME280;64229;52.246;21.054;2023-05-10T07:54:50;101135.41;;;27.52;16.03
30897;BME280;64229;52.246;21.054;2023-05-10T07:57:15;101141.53;;;27.81;15.60
30897;BME280;64229;52.246;21.054;2023-05-10T07:59:42;101136.69;;;28.81;15.64
30897;BME280;64229;52.246;21.054;2023-05-10T08:02:08;101136.88;;;30.05;14.64
30897;BME280;64229;52.246;21.054;2023-05-10T08:04:33;101140.34;;;28.40;13.43
30897;BME280;64229;52.246;21.054;2023-05-10T08:06:58;101146.47;;;26.89;14.43
30897;BME280;64229;52.246;21.054;2023-05-10T08:09:24;101145.06;;;26.64;15.19
30897;BME280;64229;52.246;21.054;2023-05-10T08:11:50;101133.31;;;26.19;15.27
30897;BME280;64229;52.246;21.054;2023-05-10T08:14:16;101136.06;;;26.35;14.98
30897;BME280;64229;52.246;21.054;2023-05-10T08:16:41;101144.16;;;26.44;15.23
30897;BME280;64229;52.246;21.054;2023-05-10T08:19:07;101128.34;;;26.69;15.22
30897;BME280;64229;52.246;21.054;2023-05-10T08:21:32;101132.69;;;26.86;14.88
30897;BME280;64229;52.246;21.054;2023-05-10T08:28:47;101117.31;;;25.78;15.96
30897;BME280;64229;52.246;21.054;2023-05-10T08:31:13;101125.88;;;25.76;15.93
30897;BME280;64229;52.246;21.054;2023-05-10T08:33:38;101119.78;;;26.39;16.05
30897;BME280;64229;52.246;21.054;2023-05-10T08:36:03;101130.31;;;26.68;15.38
30897;BME280;64229;52.246;21.054;2023-05-10T08:38:29;101118.63;;;27.19;15.28
30897;BME280;64229;52.246;21.054;2023-05-10T08:40:55;101132.56;;;27.84;14.50
30897;BME280;64229;52.246;21.054;2023-05-10T08:43:26;101139.94;;;27.09;15.16
30897;BME280;64229;52.246;21.054;2023-05-10T08:45:54;101136.16;;;26.23;15.63
30897;BME280;64229;52.246;21.054;2023-05-10T08:48:20;101126.69;;;26.20;15.45
30897;BME280;64229;52.246;21.054;2023-05-10T08:50:48;101130.22;;;26.21;15.54
30897;BME280;64229;52.246;21.054;2023-05-10T08:53:16;101131.00;;;26.65;15.84
30897;BME280;64229;52.246;21.054;2023-05-10T08:55:41;101132.69;;;26.38;15.51
30897;BME280;64229;52.246;21.054;2023-05-10T08:58:08;101125.63;;;27.16;15.61
30897;BME280;64229;52.246;21.054;2023-05-10T09:00:34;101113.44;;;27.14;14.84
30897;BME280;64229;52.246;21.054;2023-05-10T09:03:01;101131.31;;;26.16;15.24
30897;BME280;64229;52.246;21.054;2023-05-10T09:05:26;101128.34;;;25.17;16.36
30897;BME280;64229;52.246;21.054;2023-05-10T09:07:52;101131.66;;;25.22;16.39
30897;BME280;64229;52.246;21.054;2023-05-10T09:10:18;101112.97;;;25.24;16.46
30897;BME280;64229;52.246;21.054;2023-05-10T09:12:44;101121.88;;;25.61;16.80
30897;BME280;64229;52.246;21.054;2023-05-10T09:15:10;101114.00;;;24.95;16.50
30897;BME280;64229;52.246;21.054;2023-05-10T09:17:37;101099.47;;;25.56;16.01
30897;BME280;64229;52.246;21.054;2023-05-10T09:20:04;101114.25;;;24.33;16.73
30897;BME280;64229;52.246;21.054;2023-05-10T09:22:30;101106.94;;;24.58;17.10
30897;BME280;64229;52.246;21.054;2023-05-10T09:25:08;101096.59;;;25.00;17.00
30897;BME280;64229;52.246;21.054;2023-05-10T09:27:35;101102.66;;;25.58;16.21
30897;BME280;64229;52.246;21.054;2023-05-10T09:30:01;101091.31;;;25.84;16.72
30897;BME280;64229;52.246;21.054;2023-05-10T09:35:12;101101.16;;;26.92;15.23
30897;BME280;64229;52.246;21.054;2023-05-10T09:37:48;101110.72;;;26.50;15.55
30897;BME280;64229;52.246;21.054;2023-05-10T09:40:15;101107.25;;;26.85;15.85
30897;BME280;64229;52.246;21.054;2023-05-10T09:42:43;101106.53;;;27.39;15.42
30897;BME280;64229;52.246;21.054;2023-05-10T09:45:15;101104.13;;;27.92;14.80
30897;BME280;64229;52.246;21.054;2023-05-10T09:47:40;101103.44;;;27.05;15.17
30897;BME280;64229;52.246;21.054;2023-05-10T09:50:06;101109.72;;;25.59;16.17
30897;BME280;64229;52.246;21.054;2023-05-10T09:52:52;101105.31;;;23.28;17.59
30897;BME280;64229;52.246;21.054;2023-05-10T09:55:26;101091.25;;;23.26;18.17
30897;BME280;64229;52.246;21.054;2023-05-10T09:58:02;101104.53;;;24.23;17.80
30897;BME280;64229;52.246;21.054;2023-05-10T10:00:34;101100.66;;;24.45;17.60
30897;BME280;64229;52.246;21.054;2023-05-10T10:03:01;101097.84;;;24.20;18.26
30897;BME280;64229;52.246;21.054;2023-05-10T10:05:30;101096.34;;;24.11;17.67
30897;BME280;64229;52.246;21.054;2023-05-10T10:08:00;101060.56;;;23.79;18.33
30897;BME280;64229;52.246;21.054;2023-05-10T10:10:27;101087.84;;;23.91;18.30
30897;BME280;64229;52.246;21.054;2023-05-10T10:12:53;101069.91;;;22.69;19.09
30897;BME280;64229;52.246;21.054;2023-05-10T10:15:20;101080.00;;;21.35;20.80
30897;BME280;64229;52.246;21.054;2023-05-10T10:17:46;101082.88;;;20.19;21.66
30897;BME280;64229;52.246;21.054;2023-05-10T10:20:12;101091.38;;;19.59;22.36
30897;BME280;64229;52.246;21.054;2023-05-10T10:22:37;101067.00;;;19.10;22.67
30897;BME280;64229;52.246;21.054;2023-05-10T10:25:04;101052.31;;;18.74;22.92
30897;BME280;64229;52.246;21.054;2023-05-10T10:35:31;101064.81;;;17.91;23.43
30897;BME280;64229;52.246;21.054;2023-05-10T10:37:58;101057.09;;;17.66;23.82
30897;BME280;64229;52.246;21.054;2023-05-10T10:40:31;101073.50;;;17.51;23.74
30897;BME280;64229;52.246;21.054;2023-05-10T10:42:57;101055.06;;;17.58;23.91
30897;BME280;64229;52.246;21.054;2023-05-10T10:45:24;101062.13;;;17.54;23.97
30897;BME280;64229;52.246;21.054;2023-05-10T10:48:21;101056.50;;;17.31;24.46
30897;BME280;64229;52.246;21.054;2023-05-10T10:50:47;101033.41;;;17.25;23.69
30897;BME280;64229;52.246;21.054;2023-05-10T10:53:12;101046.16;;;17.20;24.60
30897;BME280;64229;52.246;21.054;2023-05-10T10:55:48;101042.59;;;17.24;25.17
30897;BME280;64229;52.246;21.054;2023-05-10T10:58:29;101033.91;;;17.27;25.07
30897;BME280;64229;52.246;21.054;2023-05-10T11:01:10;101049.38;;;17.41;24.26
30897;BME280;64229;52.246;21.054;2023-05-10T11:03:36;101047.59;;;17.31;24.69
30897;BME280;64229;52.246;21.054;2023-05-10T11:06:01;101038.28;;;17.23;25.06
30897;BME280;64229;52.246;21.054;2023-05-10T11:13:46;101028.06;;;17.20;25.40
30897;BME280;64229;52.246;21.054;2023-05-10T11:19:04;101035.13;;;17.54;25.94
30897;BME280;64229;52.246;21.054;2023-05-10T11:21:31;101016.75;;;17.75;25.64
30897;BME280;64229;52.246;21.054;2023-05-10T11:23:58;101024.28;;;17.59;25.24
30897;BME280;64229;52.246;21.054;2023-05-10T11:26:25;101018.13;;;17.53;25.66
30897;BME280;64229;52.246;21.054;2023-05-10T11:28:52;101021.72;;;17.49;26.26
30897;BME280;64229;52.246;21.054;2023-05-10T11:31:20;101008.09;;;17.40;26.85
30897;BME280;64229;52.246;21.054;2023-05-10T11:33:48;101015.31;;;17.45;26.57
30897;BME280;64229;52.246;21.054;2023-05-10T11:36:15;101002.97;;;17.57;25.57
30897;BME280;64229;52.246;21.054;2023-05-10T11:38:41;101005.44;;;17.73;25.96
30897;BME280;64229;52.246;21.054;2023-05-10T11:41:10;101022.84;;;17.99;25.57
30897;BME280;64229;52.246;21.054;2023-05-10T11:43:37;101019.88;;;17.82;24.64
30897;BME280;64229;52.246;21.054;2023-05-10T11:46:05;101006.84;;;17.51;24.59
30897;BME280;64229;52.246;21.054;2023-05-10T11:48:31;100986.06;;;17.33;24.95
30897;BME280;64229;52.246;21.054;2023-05-10T11:50:56;101000.19;;;17.44;25.32
30897;BME280;64229;52.246;21.054;2023-05-10T11:53:25;100997.06;;;17.55;24.81
30897;BME280;64229;52.246;21.054;2023-05-10T11:55:50;101003.00;;;17.39;24.96
30897;BME280;64229;52.246;21.054;2023-05-10T11:58:18;101007.44;;;17.48;25.43
30897;BME280;64229;52.246;21.054;2023-05-10T12:00:44;101013.56;;;17.35;25.66
30897;BME280;64229;52.246;21.054;2023-05-10T12:03:10;101015.31;;;17.45;25.42
30897;BME280;64229;52.246;21.054;2023-05-10T12:05:36;101013.63;;;17.49;25.26
30897;BME280;64229;52.246;21.054;2023-05-10T12:08:14;101001.94;;;17.72;25.18
30897;BME280;64229;52.246;21.054;2023-05-10T12:10:41;100992.72;;;17.92;24.91
30897;BME280;64229;52.246;21.054;2023-05-10T12:13:14;100991.25;;;18.13;24.77
30897;BME280;64229;52.246;21.054;2023-05-10T12:15:41;100991.06;;;18.10;23.93
30897;BME280;64229;52.246;21.054;2023-05-10T12:18:14;100987.25;;;18.11;24.67
30897;BME280;64229;52.246;21.054;2023-05-10T12:20:40;100993.88;;;18.18;24.58
30897;BME280;64229;52.246;21.054;2023-05-10T12:23:08;100982.47;;;18.21;24.65
30897;BME280;64229;52.246;21.054;2023-05-10T12:25:36;100990.28;;;18.23;25.38
30897;BME280;64229;52.246;21.054;2023-05-10T12:28:06;100989.03;;;18.15;25.21
30897;BME280;64229;52.246;21.054;2023-05-10T12:30:34;101005.25;;;18.15;25.43
30897;BME280;64229;52.246;21.054;2023-05-10T12:33:08;100992.53;;;18.02;24.74
30897;BME280;64229;52.246;21.054;2023-05-10T12:35:52;100999.91;;;17.97;24.99
30897;BME280;64229;52.246;21.054;2023-05-10T12:38:25;100993.72;;;17.96;24.01
30897;BME280;64229;52.246;21.054;2023-05-10T12:40:51;101005.25;;;18.02;24.42
30897;BME280;64229;52.246;21.054;2023-05-10T12:43:16;100992.56;;;18.16;23.77
30897;BME280;64229;52.246;21.054;2023-05-10T12:45:42;100991.38;;;18.22;23.95
30897;BME280;64229;52.246;21.054;2023-05-10T12:48:07;100985.25;;;18.16;24.07
30897;BME280;64229;52.246;21.054;2023-05-10T12:50:32;100981.16;;;18.19;24.60
30897;BME280;64229;52.246;21.054;2023-05-10T12:52:58;100978.28;;;18.29;24.78
30897;BME280;64229;52.246;21.054;2023-05-10T12:55:23;100984.69;;;18.33;25.09
30897;BME280;64229;52.246;21.054;2023-05-10T12:57:48;100989.38;;;18.41;24.69
30897;BME280;64229;52.246;21.054;2023-05-10T13:00:14;100975.06;;;18.27;25.05
30897;BME280;64229;52.246;21.054;2023-05-10T13:02:40;100958.66;;;18.10;25.73
30897;BME280;64229;52.246;21.054;2023-05-10T13:05:05;100975.06;;;18.27;26.33
30897;BME280;64229;52.246;21.054;2023-05-10T13:07:31;100979.38;;;18.56;25.42
30897;BME280;64229;52.246;21.054;2023-05-10T13:09:56;100976.88;;;18.45;25.49
30897;BME280;64229;52.246;21.054;2023-05-10T13:12:21;100967.16;;;18.58;25.30
30897;BME280;64229;52.246;21.054;2023-05-10T13:14:47;100965.78;;;18.74;25.05
30897;BME280;64229;52.246;21.054;2023-05-10T13:17:12;100960.94;;;18.85;25.47
30897;BME280;64229;52.246;21.054;2023-05-10T13:19:37;100945.72;;;18.62;25.36
30897;BME280;64229;52.246;21.054;2023-05-10T13:22:03;100955.34;;;18.68;24.94